Weather History for Wilkerson Pass, CO

Change the Weather History Date:

Sunday, December 1, 2013

  Actual Average (KAFF) Record (KAFF)
Temperature  
Mean Temperature 26 °F -  
Max Temperature 33 °F 43 °F 68 °F (1998)
Min Temperature 19 °F 21 °F 12 °F (2000)
Degree Days  
Heating Degree Days 39    
Moisture  
Dew Point 8 °F    
Average Humidity 49    
Maximum Humidity 86    
Minimum Humidity 34    
Precipitation  
Precipitation 0.00 in - - ()
Sea Level Pressure  
Sea Level Pressure 30.17 in    
Wind  
Wind Speed 13 mph (West)    
Max Wind Speed 29 mph    
Max Gust Speed 51 mph    
Visibility 10 miles    
Events      
Averages and records for this station are not official NWS values.
T = Trace of Precipitation, MM = Missing Value Source: NWS Daily Summary

Daily Weather History Graph

Daily Weather History Graph

Search for Another Location

Airport:

Trip Planner

Search our weather history database for the weather conditions in past years. The results will help you decide how hot, cold, wet, or windy it might be!

Date:

Astronomy

Dec. 01, 2013 Rise Set
Actual Time 7:02 AM MST 4:39 PM MST
Civil Twilight 6:32 AM MST 5:09 PM MST
Nautical Twilight 5:59 AM MST 5:42 PM MST
Astronomical Twilight 5:27 AM MST 6:14 PM MST
Moon 5:24 AM MST (12/1) 3:51 PM MST (12/1)
Length of Visible Light 10h 36m
Length of Day
9h 37m
Waning Crescent, 2% of the Moon is Illuminated
Dec 1
Waning Crescent
Dec 2
New
Dec 9
First Quarter
Dec 17
Full
Dec 25
Last Quarter

Hourly Weather History & Observations

Time (MST) Temp. Windchill Dew Point Humidity Pressure Visibility Wind Dir Wind Speed Gust Speed Precip Events Conditions
12:01 AM 23.0 °F 12.4 °F 5.0 °F 46% 30.27 in 10.0 mi West 10.4 mph 17.3 mph N/A   Clear
12:21 AM 21.2 °F 9.5 °F 5.0 °F 50% 30.26 in 10.0 mi WNW 11.5 mph 18.4 mph N/A   Clear
12:41 AM 21.2 °F 9.5 °F 5.0 °F 50% 30.26 in 10.0 mi West 11.5 mph 18.4 mph N/A   Clear
1:01 AM 21.2 °F 10.9 °F 3.2 °F 46% 30.26 in 10.0 mi West 9.2 mph - N/A   Clear
1:21 AM 21.2 °F 9.5 °F 5.0 °F 50% 30.26 in 10.0 mi West 11.5 mph 17.3 mph N/A   Clear
1:41 AM 21.2 °F 9.5 °F 3.2 °F 46% 30.26 in 10.0 mi West 11.5 mph 17.3 mph N/A   Clear
2:01 AM 21.2 °F 8.9 °F 3.2 °F 46% 30.26 in 10.0 mi West 12.7 mph 18.4 mph N/A   Clear
2:21 AM 21.2 °F 9.5 °F 3.2 °F 46% 30.26 in 10.0 mi West 11.5 mph 19.6 mph N/A   Clear
2:40 AM 21.2 °F 9.5 °F 3.2 °F 46% 30.26 in 10.0 mi West 11.5 mph 19.6 mph N/A   Clear
3:01 AM 19.4 °F 7.9 °F 3.2 °F 49% 30.24 in 10.0 mi WSW 10.4 mph 20.7 mph N/A   Clear
3:21 AM 21.2 °F 9.5 °F 1.4 °F 42% 30.24 in 10.0 mi West 11.5 mph 18.4 mph N/A   Clear
3:41 AM 21.2 °F 11.7 °F 1.4 °F 42% 30.24 in 10.0 mi WSW 8.1 mph 16.1 mph N/A   Clear
4:01 AM 21.2 °F 10.1 °F 1.4 °F 42% 30.24 in 10.0 mi West 10.4 mph 17.3 mph N/A   Clear
4:21 AM 21.2 °F 9.5 °F -0.4 °F 39% 30.24 in 10.0 mi West 11.5 mph 19.6 mph N/A   Clear
4:41 AM 21.2 °F 9.5 °F 1.4 °F 42% 30.24 in 10.0 mi West 11.5 mph 18.4 mph N/A   Clear
5:01 AM 21.2 °F 8.9 °F 1.4 °F 42% 30.24 in 10.0 mi West 12.7 mph 19.6 mph N/A   Clear
5:21 AM 21.2 °F 10.9 °F 1.4 °F 42% 30.24 in 10.0 mi West 9.2 mph 17.3 mph N/A   Clear
5:41 AM 21.2 °F 10.9 °F 1.4 °F 42% 30.23 in 10.0 mi West 9.2 mph 18.4 mph N/A   Clear
6:01 AM 21.2 °F 9.5 °F 1.4 °F 42% 30.23 in 10.0 mi West 11.5 mph 17.3 mph N/A   Clear
6:21 AM 21.2 °F 9.5 °F 1.4 °F 42% 30.23 in 10.0 mi West 11.5 mph 18.4 mph N/A   Clear
6:40 AM 21.2 °F 10.1 °F 1.4 °F 42% 30.23 in 10.0 mi West 10.4 mph 19.6 mph N/A   Clear
7:00 AM 21.2 °F 8.9 °F 3.2 °F 46% 30.23 in 10.0 mi West 12.7 mph 21.9 mph N/A   Clear
7:21 AM 21.2 °F 10.1 °F 3.2 °F 46% 30.24 in 10.0 mi WNW 10.4 mph 17.3 mph N/A   Clear
7:41 AM 21.2 °F 9.5 °F 3.2 °F 46% 30.23 in 10.0 mi WNW 11.5 mph 18.4 mph N/A   Clear
8:01 AM 21.2 °F 7.3 °F 3.2 °F 46% 30.21 in 10.0 mi West 16.1 mph 24.2 mph N/A   Clear
8:21 AM 23.0 °F 11.1 °F 5.0 °F 46% 30.21 in 10.0 mi West 12.7 mph 28.8 mph N/A   Clear
8:41 AM 21.2 °F 9.5 °F 5.0 °F 50% 30.24 in 10.0 mi NW 11.5 mph 27.6 mph N/A   Clear
9:01 AM 23.0 °F 11.1 °F 5.0 °F 46% 30.24 in 10.0 mi WNW 12.7 mph 25.3 mph N/A   Clear
9:21 AM 24.8 °F 14.6 °F 5.0 °F 43% 30.25 in 10.0 mi WNW 10.4 mph 21.9 mph N/A   Clear
9:41 AM 24.8 °F 14.6 °F 5.0 °F 43% 30.26 in 10.0 mi WNW 10.4 mph 23.0 mph N/A   Clear
10:01 AM 26.6 °F 17.5 °F 5.0 °F 40% 30.27 in 10.0 mi WNW 9.2 mph 18.4 mph N/A   Clear
10:21 AM 28.4 °F 22.2 °F 5.0 °F 37% 30.27 in 10.0 mi West 5.8 mph - N/A   Clear
10:41 AM 28.4 °F 23.3 °F 6.8 °F 40% 30.26 in 10.0 mi West 4.6 mph 21.9 mph N/A   Clear
11:01 AM 28.4 °F 19.7 °F 5.0 °F 37% 30.24 in 10.0 mi West 9.2 mph - N/A   Clear
11:21 AM 28.4 °F 20.4 °F 8.6 °F 43% 30.22 in 10.0 mi West 8.1 mph 17.3 mph N/A   Clear
11:41 AM 28.4 °F 18.0 °F 8.6 °F 43% 30.21 in 10.0 mi West 12.7 mph 20.7 mph N/A   Clear
12:01 PM 30.2 °F 25.4 °F 10.4 °F 44% 30.21 in 10.0 mi SW 4.6 mph - N/A   Clear
12:21 PM 32.0 °F 25.6 °F 10.4 °F 41% 30.20 in 10.0 mi SSW 6.9 mph - N/A   Clear
12:41 PM 32.0 °F 26.4 °F 10.4 °F 41% 30.19 in 10.0 mi SSW 5.8 mph - N/A   Clear
1:01 PM 32.0 °F 28.7 °F 12.2 °F 44% 30.19 in 10.0 mi WSW 3.5 mph - N/A   Clear
1:21 PM 33.8 °F 27.7 °F 12.2 °F 41% 30.16 in 10.0 mi SW 6.9 mph - N/A   Clear
1:41 PM 32.0 °F 24.2 °F 12.2 °F 44% 30.14 in 10.0 mi SSW 9.2 mph 17.3 mph N/A   Clear
2:01 PM 32.0 °F 24.2 °F 12.2 °F 44% 30.14 in 10.0 mi WSW 9.2 mph - N/A   Clear
2:21 PM 32.0 °F 22.1 °F 10.4 °F 41% 30.13 in 10.0 mi West 13.8 mph 23.0 mph N/A   Clear
2:41 PM 30.2 °F 17.4 °F 6.8 °F 37% 30.11 in 10.0 mi West 20.7 mph 38.0 mph N/A   Clear
3:00 PM 30.2 °F 16.8 °F 5.0 °F 34% 30.10 in 10.0 mi West 23.0 mph 36.8 mph N/A   Clear
3:21 PM 30.2 °F 15.4 °F 5.0 °F 34% 30.09 in 10.0 mi West 28.8 mph - N/A   Clear
3:41 PM 30.2 °F 17.8 °F 5.0 °F 34% 30.10 in 10.0 mi West 19.6 mph - N/A   Clear
4:01 PM 28.4 °F 15.1 °F 6.8 °F 40% 30.10 in 10.0 mi West 20.7 mph 38.0 mph N/A   Clear
4:21 PM 28.4 °F 15.1 °F 8.6 °F 43% 30.10 in 10.0 mi West 20.7 mph 38.0 mph N/A   Clear
4:41 PM 26.6 °F 12.0 °F 8.6 °F 47% 30.11 in 10.0 mi West 23.0 mph 36.8 mph N/A   Clear
5:01 PM 26.6 °F 12.4 °F 8.6 °F 47% 30.10 in 10.0 mi West 21.9 mph 32.2 mph N/A   Clear
5:21 PM 26.6 °F 13.1 °F 8.6 °F 47% 30.09 in 10.0 mi West 19.6 mph 33.4 mph N/A   Clear
5:40 PM 26.6 °F 12.0 °F 10.4 °F 51% 30.08 in 10.0 mi West 23.0 mph 35.7 mph N/A   Clear
6:01 PM 26.6 °F 13.4 °F 10.4 °F 51% 30.08 in 10.0 mi West 18.4 mph 34.5 mph N/A   Clear
6:21 PM 26.6 °F 12.7 °F 10.4 °F 51% 30.07 in 10.0 mi West 20.7 mph 33.4 mph N/A   Clear
6:41 PM 26.6 °F 13.8 °F 12.2 °F 55% 30.08 in 10.0 mi West 17.3 mph 29.9 mph N/A   Clear
7:00 PM 26.6 °F 14.3 °F 12.2 °F 55% 30.09 in 10.0 mi West 16.1 mph 32.2 mph N/A   Scattered Clouds
7:21 PM 26.6 °F 12.7 °F 14.0 °F 59% 30.07 in 10.0 mi West 20.7 mph 33.4 mph N/A   Clear
7:41 PM 26.6 °F 13.8 °F 14.0 °F 59% 30.07 in 10.0 mi West 17.3 mph 32.2 mph N/A   Clear
8:01 PM 26.6 °F 12.0 °F 15.8 °F 64% 30.05 in 10.0 mi West 23.0 mph - N/A   Clear
8:21 PM 26.6 °F - 17.6 °F 69% 30.05 in 10.0 mi North - - N/A   Clear
8:41 PM 26.6 °F 13.4 °F 17.6 °F 69% 30.05 in 10.0 mi West 18.4 mph 38.0 mph N/A   Clear
9:00 PM 26.6 °F 12.7 °F 17.6 °F 69% 30.04 in 10.0 mi West 20.7 mph 34.5 mph N/A   Clear
9:21 PM 26.6 °F 13.4 °F 17.6 °F 69% 30.05 in 10.0 mi West 18.4 mph 35.7 mph N/A   Clear
9:41 PM 24.8 °F 11.1 °F 17.6 °F 74% 30.06 in 10.0 mi West 18.4 mph 32.2 mph N/A   Clear
10:01 PM 24.8 °F 10.7 °F 17.6 °F 74% 30.06 in 10.0 mi West 19.6 mph 31.1 mph N/A   Clear
10:21 PM 26.6 °F 13.1 °F 19.4 °F 74% 30.05 in 10.0 mi West 19.6 mph 33.4 mph N/A   Clear
10:41 PM 26.6 °F 11.4 °F 19.4 °F 74% 30.03 in 10.0 mi West 25.3 mph 40.3 mph N/A   Clear
11:00 PM 24.8 °F - 19.4 °F 80% 30.03 in 10.0 mi North - - N/A   Clear
11:20 PM 24.8 °F 9.0 °F 19.4 °F 80% 30.03 in 10.0 mi West 25.3 mph 39.1 mph N/A   Scattered Clouds
11:41 PM 23.0 °F 8.3 °F 19.4 °F 86% 30.04 in 10.0 mi West 19.6 mph 50.6 mph N/A   Clear